createdAt,value
2022-12-20T00:01:47.439Z,4.20
2022-12-20T00:04:14.867Z,4.40
2022-12-20T00:06:42.190Z,4.30
2022-12-20T00:09:11.989Z,4.20
2022-12-20T00:11:41.476Z,4.40
2022-12-20T00:14:11.372Z,4.50
2022-12-20T00:16:39.210Z,4.30
2022-12-20T00:19:08.139Z,4.20
2022-12-20T00:21:37.011Z,4.30
2022-12-20T00:24:07.111Z,4.30
2022-12-20T00:26:36.499Z,4.30
2022-12-20T00:29:05.244Z,4.40
2022-12-20T00:31:32.979Z,4.30
2022-12-20T00:34:01.626Z,4.20
2022-12-20T00:36:32.600Z,4.20
2022-12-20T00:39:01.156Z,4.10
2022-12-20T00:41:35.151Z,4.00
2022-12-20T00:44:04.221Z,4.20
2022-12-20T00:46:32.684Z,4.20
2022-12-20T00:49:00.624Z,4.30
2022-12-20T00:51:32.763Z,4.30
2022-12-20T00:54:00.411Z,4.00
2022-12-20T00:56:28.029Z,4.20
2022-12-20T00:58:57.554Z,4.20
2022-12-20T01:01:32.228Z,4.20
2022-12-20T01:04:00.730Z,4.40
2022-12-20T01:06:30.187Z,4.30
2022-12-20T01:08:58.765Z,4.40
2022-12-20T01:11:38.833Z,4.60
2022-12-20T01:14:15.275Z,4.30
2022-12-20T01:16:48.101Z,4.40
2022-12-20T01:19:18.516Z,4.50
2022-12-20T01:21:46.259Z,4.20
2022-12-20T01:24:17.861Z,4.40
2022-12-20T01:26:46.776Z,4.40
2022-12-20T01:29:14.748Z,4.50
2022-12-20T01:31:42.371Z,4.40
2022-12-20T01:34:11.640Z,4.40
2022-12-20T01:36:39.284Z,4.40
2022-12-20T01:39:16.337Z,4.40
2022-12-20T01:41:46.630Z,4.30
2022-12-20T01:44:19.809Z,4.30
2022-12-20T01:46:50.435Z,4.40
2022-12-20T01:49:32.447Z,4.50
2022-12-20T01:52:18.391Z,4.40
2022-12-20T01:55:02.822Z,4.30
2022-12-20T01:57:54.234Z,4.50
2022-12-20T02:00:22.011Z,4.30
2022-12-20T02:02:50.678Z,4.40
2022-12-20T02:05:23.673Z,4.40
2022-12-20T02:07:55.991Z,4.30
2022-12-20T02:10:35.782Z,4.30
2022-12-20T02:13:24.127Z,4.30
2022-12-20T02:15:58.323Z,4.20
2022-12-20T02:18:43.989Z,4.20
2022-12-20T02:22:23.626Z,4.10
2022-12-20T02:26:07.643Z,4.10
2022-12-20T02:30:03.107Z,4.10
2022-12-20T02:33:11.314Z,4.10
2022-12-20T09:07:09.174Z,4.00
2022-12-20T09:09:37.347Z,4.10
2022-12-20T09:12:05.351Z,4.20
2022-12-20T09:14:32.738Z,4.30
2022-12-20T09:17:00.148Z,4.50
2022-12-20T09:19:28.121Z,4.60
2022-12-20T09:21:56.452Z,4.70
2022-12-20T09:24:23.988Z,4.70
2022-12-20T09:26:52.202Z,4.90
2022-12-20T09:29:27.077Z,4.80
2022-12-20T09:31:55.731Z,5.00
2022-12-20T09:34:23.119Z,5.10
2022-12-20T09:36:50.778Z,5.10
2022-12-20T09:39:18.122Z,5.10
2022-12-20T09:41:46.756Z,5.10
2022-12-20T09:44:36.128Z,5.20
2022-12-20T09:47:24.338Z,5.30
2022-12-20T09:49:57.555Z,5.50
2022-12-20T09:53:13.451Z,5.50
2022-12-20T09:56:27.096Z,5.50
2022-12-20T09:59:15.094Z,5.60
2022-12-20T10:01:53.057Z,5.80
2022-12-20T10:04:31.432Z,5.80
2022-12-20T10:07:46.860Z,6.00
2022-12-20T10:10:55.521Z,6.10
2022-12-20T10:13:57.513Z,5.90
2022-12-20T10:16:46.998Z,6.10
2022-12-20T10:19:48.796Z,6.30
2022-12-20T10:23:04.806Z,6.50
2022-12-20T10:25:34.933Z,6.40
2022-12-20T10:28:16.384Z,6.40
2022-12-20T10:30:44.702Z,6.50
2022-12-20T10:33:23.470Z,6.50
2022-12-20T10:35:52.303Z,6.40
2022-12-20T10:38:20.839Z,6.60
2022-12-20T10:44:17.909Z,6.80
2022-12-20T10:47:01.183Z,6.80
2022-12-20T10:49:41.160Z,6.90
2022-12-20T10:52:08.374Z,7.00
2022-12-20T10:54:44.808Z,7.10
2022-12-20T10:57:33.867Z,7.10
2022-12-20T11:00:09.040Z,7.10
2022-12-20T11:02:42.792Z,7.50
2022-12-20T11:05:14.431Z,7.80
2022-12-20T11:08:40.477Z,7.90
2022-12-20T11:11:24.963Z,7.90
2022-12-20T11:13:54.127Z,7.90
2022-12-20T11:16:40.072Z,7.90
2022-12-20T11:19:41.782Z,8.00
2022-12-20T11:22:57.181Z,8.70
2022-12-20T11:26:34.387Z,9.30
2022-12-20T11:29:38.598Z,9.80
2022-12-20T11:33:08.583Z,9.60
2022-12-20T11:36:11.244Z,9.30
2022-12-20T11:38:59.015Z,9.10
2022-12-20T11:41:56.668Z,9.10
2022-12-20T11:44:52.167Z,9.40
2022-12-20T11:48:04.319Z,9.90
2022-12-20T11:51:20.117Z,10.10
2022-12-20T11:55:15.151Z,10.20
2022-12-20T11:58:26.292Z,10.60
2022-12-20T12:01:23.332Z,10.90
2022-12-20T12:04:27.288Z,10.80
2022-12-20T12:07:08.063Z,11.10
2022-12-20T12:10:01.372Z,11.30
2022-12-20T12:12:45.080Z,11.10
2022-12-20T12:15:55.196Z,11.10
2022-12-20T12:18:31.446Z,10.80
2022-12-20T12:21:29.689Z,10.80
2022-12-20T12:24:34.931Z,10.70
2022-12-20T12:27:03.044Z,10.70
2022-12-20T12:29:33.410Z,10.80
2022-12-20T12:32:05.191Z,10.80
2022-12-20T12:35:31.072Z,10.40
2022-12-20T12:39:02.155Z,10.50
2022-12-20T12:42:41.583Z,10.10
2022-12-20T12:45:37.967Z,10.20
2022-12-20T12:48:46.008Z,10.10
2022-12-20T12:51:15.688Z,10.10
2022-12-20T12:54:04.663Z,10.00
2022-12-20T12:56:52.609Z,10.00
2022-12-20T12:59:33.520Z,9.70
2022-12-20T13:02:06.889Z,9.80
2022-12-20T13:05:15.006Z,9.80
2022-12-20T13:07:44.058Z,9.50
2022-12-20T13:10:18.327Z,9.80
2022-12-20T13:12:52.121Z,9.80
2022-12-20T13:15:22.536Z,9.70
2022-12-20T13:18:09.201Z,9.70
2022-12-20T13:20:37.776Z,9.80
2022-12-20T13:23:11.827Z,10.00
2022-12-20T13:25:51.993Z,10.00
2022-12-20T13:28:25.012Z,10.10
2022-12-20T13:31:01.455Z,10.10
2022-12-20T13:33:48.491Z,10.00
2022-12-20T13:36:36.099Z,10.20
2022-12-20T13:39:23.604Z,10.10
2022-12-20T13:42:31.010Z,10.10
2022-12-20T13:45:06.755Z,10.20
2022-12-20T13:47:46.665Z,10.10
2022-12-20T13:50:40.582Z,10.10
2022-12-20T13:53:27.215Z,10.00
2022-12-20T13:55:55.818Z,10.10
2022-12-20T13:58:36.148Z,10.10
2022-12-20T14:01:13.434Z,10.10
2022-12-20T14:03:48.282Z,9.90
2022-12-20T14:06:26.305Z,9.90
2022-12-20T14:08:54.698Z,10.00
2022-12-20T14:11:27.138Z,10.00
2022-12-20T14:14:04.992Z,10.00
2022-12-20T14:16:33.794Z,9.90
2022-12-20T14:19:14.831Z,10.00
2022-12-20T14:21:45.903Z,9.90
2022-12-20T14:24:21.924Z,9.80
2022-12-20T14:26:53.789Z,9.90
2022-12-20T14:29:31.099Z,9.70
2022-12-20T14:31:58.663Z,9.60
2022-12-20T14:34:36.577Z,9.60
2022-12-20T14:37:39.133Z,9.60
2022-12-20T14:40:12.537Z,9.60
2022-12-20T14:42:41.118Z,9.40
2022-12-20T14:45:24.082Z,9.50
2022-12-20T14:48:06.597Z,9.60
2022-12-20T14:50:42.661Z,9.50
2022-12-20T14:53:27.632Z,9.60
2022-12-20T14:55:55.729Z,9.40
2022-12-20T14:58:30.126Z,9.40
2022-12-20T15:01:31.196Z,9.20
2022-12-20T15:04:00.699Z,9.30
2022-12-20T15:06:43.379Z,9.10
2022-12-20T15:09:11.159Z,9.20
2022-12-20T15:11:40.977Z,9.10
2022-12-20T15:14:36.653Z,9.20
2022-12-20T15:17:13.470Z,9.20
2022-12-20T15:19:42.747Z,9.10
2022-12-20T15:22:18.909Z,9.30
2022-12-20T15:24:46.380Z,9.30
2022-12-20T15:27:16.030Z,9.20
2022-12-20T15:29:43.686Z,9.20
2022-12-20T15:32:29.769Z,9.00
2022-12-20T15:34:57.382Z,9.10
2022-12-20T15:37:24.723Z,9.20
2022-12-20T15:39:52.071Z,9.10
2022-12-20T15:42:22.975Z,9.10
2022-12-20T15:44:50.566Z,8.90
2022-12-20T15:47:17.954Z,9.00
2022-12-20T15:49:50.169Z,9.00
2022-12-20T15:52:24.443Z,8.90
2022-12-20T15:54:52.029Z,9.00
2022-12-20T15:57:20.875Z,9.00
2022-12-20T16:00:00.529Z,8.80
2022-12-20T16:02:31.328Z,8.80
2022-12-20T16:04:59.500Z,8.90
2022-12-20T16:07:27.303Z,8.80
2022-12-20T16:09:54.697Z,9.00
2022-12-20T16:12:35.556Z,9.00
2022-12-20T16:15:03.395Z,8.90
2022-12-20T16:17:31.732Z,8.80
2022-12-20T16:19:59.118Z,8.90
2022-12-20T16:22:26.698Z,8.80
2022-12-20T16:24:54.287Z,8.80
2022-12-20T16:27:21.821Z,8.90
2022-12-20T16:29:49.175Z,8.80
2022-12-20T16:32:24.030Z,8.70
2022-12-20T16:34:52.451Z,8.70
2022-12-20T16:37:19.866Z,8.70
2022-12-20T16:39:47.300Z,8.80
2022-12-20T16:42:22.905Z,8.60
2022-12-20T16:44:54.341Z,8.70
2022-12-20T16:47:22.206Z,8.50
2022-12-20T16:49:53.159Z,8.50
2022-12-20T16:52:22.667Z,8.50
2022-12-20T16:54:51.267Z,8.60
2022-12-20T16:57:19.829Z,8.50
2022-12-20T16:59:47.248Z,8.60
2022-12-20T17:02:30.683Z,8.40
2022-12-20T17:04:58.758Z,8.50
2022-12-20T17:07:26.733Z,8.50
2022-12-20T17:12:36.442Z,8.50
2022-12-20T17:15:04.893Z,8.30
2022-12-20T17:17:32.345Z,8.50
2022-12-20T17:20:00.205Z,8.30
2022-12-20T17:22:27.666Z,8.40
2022-12-20T17:24:55.086Z,8.40
2022-12-20T17:27:22.469Z,8.40
2022-12-20T17:29:50.653Z,8.40
2022-12-20T17:32:25.908Z,8.30
2022-12-20T17:34:54.420Z,8.40
2022-12-20T17:37:21.928Z,8.40
2022-12-20T17:39:49.540Z,8.60
2022-12-20T17:42:17.403Z,8.60
2022-12-20T17:44:46.370Z,8.60
2022-12-20T17:47:14.003Z,8.50
2022-12-20T17:49:41.340Z,8.50
2022-12-20T17:52:15.094Z,8.50
2022-12-20T17:54:42.566Z,8.50
2022-12-20T17:57:16.826Z,8.30
2022-12-20T17:59:44.623Z,8.40
2022-12-20T18:02:25.409Z,8.50
2022-12-20T18:04:53.371Z,8.70
2022-12-20T18:07:20.871Z,8.70
2022-12-20T18:09:49.301Z,8.50
2022-12-20T18:12:18.920Z,8.50
2022-12-20T18:14:49.954Z,8.80
2022-12-20T18:17:17.719Z,8.90
2022-12-20T18:19:45.627Z,8.80
2022-12-20T18:22:15.028Z,8.60
2022-12-20T18:24:42.493Z,8.50
2022-12-20T18:27:09.968Z,8.50
2022-12-20T18:29:37.333Z,8.40
2022-12-20T18:32:05.485Z,8.60
2022-12-20T18:34:32.858Z,8.40
2022-12-20T18:37:01.926Z,8.40
2022-12-20T18:39:29.282Z,8.20
2022-12-20T18:41:56.779Z,8.20
2022-12-20T18:44:24.415Z,8.20
2022-12-20T18:46:51.752Z,8.20
2022-12-20T18:49:19.290Z,8.10
2022-12-20T18:51:46.729Z,8.20
2022-12-20T18:54:14.836Z,8.20
2022-12-20T18:56:42.228Z,8.00
2022-12-20T18:59:12.739Z,8.20
2022-12-20T19:01:42.430Z,8.20
2022-12-20T19:04:10.781Z,8.20
2022-12-20T19:06:39.215Z,8.00
2022-12-20T19:09:13.245Z,8.10
2022-12-20T19:11:42.519Z,8.30
2022-12-20T19:14:11.601Z,8.40
2022-12-20T19:16:40.146Z,8.10
2022-12-20T19:19:09.036Z,8.10
2022-12-20T19:21:42.764Z,8.10
2022-12-20T19:24:11.687Z,8.10
2022-12-20T19:26:39.741Z,8.00
2022-12-20T19:29:08.572Z,8.10
2022-12-20T19:31:37.964Z,8.10
2022-12-20T19:34:11.854Z,8.10
2022-12-20T19:36:47.119Z,8.10
2022-12-20T19:39:23.507Z,8.10
2022-12-20T19:44:39.316Z,8.20
2022-12-20T19:47:07.018Z,8.10
2022-12-20T19:49:37.868Z,7.80
2022-12-20T19:52:06.822Z,7.80
2022-12-20T19:54:35.224Z,7.90
2022-12-20T19:57:02.625Z,8.10
2022-12-20T19:59:30.738Z,8.10
2022-12-20T20:01:58.198Z,8.00
